createdAt,value
2019-03-28T00:01:14.838Z,24.27
2019-03-28T00:03:43.230Z,24.17
2019-03-28T00:06:11.823Z,24.60
2019-03-28T00:08:40.209Z,25.37
2019-03-28T00:11:08.950Z,24.10
2019-03-28T00:13:38.082Z,24.97
2019-03-28T00:16:06.576Z,25.77
2019-03-28T00:18:35.032Z,25.27
2019-03-28T00:21:03.682Z,26.47
2019-03-28T00:23:33.715Z,26.20
2019-03-28T00:26:02.105Z,27.80
2019-03-28T00:28:30.645Z,26.13
2019-03-28T00:30:59.273Z,28.17
2019-03-28T00:33:27.671Z,26.97
2019-03-28T00:35:56.091Z,26.37
2019-03-28T00:38:25.142Z,27.27
2019-03-28T00:40:53.848Z,27.20
2019-03-28T00:43:22.263Z,26.23
2019-03-28T00:45:51.002Z,27.67
2019-03-28T00:48:19.390Z,27.60
2019-03-28T00:50:47.827Z,27.10
2019-03-28T00:53:16.259Z,26.83
2019-03-28T00:55:44.922Z,27.73
2019-03-28T00:58:13.610Z,26.60
2019-03-28T01:00:42.102Z,26.97
2019-03-28T01:03:11.232Z,26.60
2019-03-28T01:05:39.578Z,28.20
2019-03-28T01:08:07.969Z,26.97
2019-03-28T01:10:36.375Z,28.33
2019-03-28T01:13:04.781Z,28.20
2019-03-28T01:15:33.254Z,28.47
2019-03-28T01:18:01.970Z,29.60
2019-03-28T01:20:30.359Z,29.70
2019-03-28T01:22:58.770Z,29.50
2019-03-28T01:25:27.531Z,28.00
2019-03-28T01:27:56.233Z,29.30
2019-03-28T01:30:24.890Z,31.20
2019-03-28T01:32:53.475Z,27.27
2019-03-28T01:35:21.974Z,28.07
2019-03-28T01:37:50.385Z,28.80
2019-03-28T01:40:19.128Z,29.00
2019-03-28T01:42:47.524Z,29.67
2019-03-28T01:45:16.019Z,29.37
2019-03-28T01:47:44.603Z,29.60
2019-03-28T01:50:13.461Z,28.83
2019-03-28T01:52:41.852Z,28.53
2019-03-28T01:55:10.830Z,30.00
2019-03-28T01:57:39.487Z,30.57
2019-03-28T02:00:10.332Z,31.40
2019-03-28T02:02:38.721Z,31.60
2019-03-28T02:05:08.239Z,31.50
2019-03-28T02:07:36.921Z,32.33
2019-03-28T02:10:06.306Z,29.97
2019-03-28T02:12:34.715Z,32.60
2019-03-28T02:15:04.299Z,31.40
2019-03-28T02:17:32.780Z,29.67
2019-03-28T02:20:01.179Z,30.63
2019-03-28T02:22:29.571Z,31.03
2019-03-28T02:24:58.245Z,30.30
2019-03-28T02:27:26.932Z,32.80
2019-03-28T02:29:55.354Z,30.33
2019-03-28T02:32:23.746Z,32.60
2019-03-28T02:34:52.309Z,29.93
2019-03-28T02:37:20.722Z,30.97
2019-03-28T02:39:49.156Z,32.70
2019-03-28T02:42:17.580Z,31.70
2019-03-28T02:44:46.234Z,30.00
2019-03-28T02:47:14.654Z,31.27
2019-03-28T02:49:43.357Z,29.20
2019-03-28T02:52:11.920Z,31.73
2019-03-28T02:54:40.318Z,31.37
2019-03-28T02:57:08.711Z,30.03
2019-03-28T02:59:37.121Z,30.17
2019-03-28T03:02:06.703Z,29.40
2019-03-28T03:04:35.789Z,30.60
2019-03-28T03:07:04.191Z,29.53
2019-03-28T03:09:32.574Z,30.10
2019-03-28T03:12:01.548Z,32.13
2019-03-28T03:14:30.049Z,30.10
2019-03-28T03:16:58.911Z,33.50
2019-03-28T03:19:27.596Z,32.70
2019-03-28T03:21:56.282Z,32.70
2019-03-28T03:24:24.677Z,32.83
2019-03-28T03:26:53.478Z,33.80
2019-03-28T03:29:21.906Z,34.80
2019-03-28T03:31:50.402Z,35.57
2019-03-28T03:34:18.943Z,35.80
2019-03-28T03:36:47.348Z,34.90
2019-03-28T03:39:15.837Z,33.87
2019-03-28T03:41:45.087Z,35.17
2019-03-28T03:44:13.448Z,31.30
2019-03-28T03:46:41.842Z,34.20
2019-03-28T03:49:10.328Z,36.27
2019-03-28T03:51:38.717Z,35.27
2019-03-28T03:54:07.383Z,34.80
2019-03-28T03:56:36.694Z,33.20
2019-03-28T03:59:05.349Z,35.30
2019-03-28T04:01:33.766Z,36.53
2019-03-28T04:04:02.300Z,34.07
2019-03-28T04:06:30.999Z,33.73
2019-03-28T04:08:59.412Z,33.70
2019-03-28T04:11:27.990Z,35.27
2019-03-28T04:13:56.398Z,31.33
2019-03-28T04:16:24.789Z,35.13
2019-03-28T04:18:53.202Z,33.70
2019-03-28T04:21:21.657Z,31.70
2019-03-28T04:23:50.366Z,28.20
2019-03-28T04:26:18.884Z,26.80
2019-03-28T04:28:47.564Z,25.57
2019-03-28T04:31:15.955Z,26.30
2019-03-28T04:33:44.599Z,25.97
2019-03-28T04:36:13.014Z,27.70
2019-03-28T04:38:41.399Z,29.77
2019-03-28T04:41:09.791Z,29.07
2019-03-28T04:43:38.208Z,30.77
2019-03-28T04:46:06.666Z,35.90
2019-03-28T04:48:35.218Z,35.17
2019-03-28T04:51:03.846Z,31.90
2019-03-28T04:53:32.233Z,34.70
2019-03-28T04:56:00.611Z,33.53
2019-03-28T04:58:29.024Z,35.93
2019-03-28T05:00:57.410Z,36.40
2019-03-28T05:03:25.800Z,38.10
2019-03-28T05:05:54.196Z,34.60
2019-03-28T05:08:22.625Z,35.70
2019-03-28T05:10:51.304Z,34.60
2019-03-28T05:13:20.351Z,38.07
2019-03-28T05:15:48.890Z,38.47
2019-03-28T05:18:17.273Z,34.63
2019-03-28T05:20:45.660Z,36.00
2019-03-28T05:23:14.361Z,34.57
2019-03-28T05:25:42.843Z,36.33
2019-03-28T05:28:11.232Z,37.23
2019-03-28T05:30:39.876Z,37.67
2019-03-28T05:33:08.487Z,40.33
2019-03-28T05:35:36.909Z,39.40
2019-03-28T05:38:05.286Z,39.13
2019-03-28T05:40:33.693Z,37.97
2019-03-28T05:43:02.402Z,36.23
2019-03-28T05:45:30.764Z,38.17
2019-03-28T05:48:00.430Z,38.33
2019-03-28T05:50:28.855Z,38.50
2019-03-28T05:52:57.545Z,36.40
2019-03-28T05:55:25.952Z,35.47
2019-03-28T05:57:54.599Z,34.37
2019-03-28T06:00:22.998Z,36.83
2019-03-28T06:02:51.399Z,40.47
2019-03-28T06:05:19.774Z,38.87
2019-03-28T06:07:48.171Z,37.40
2019-03-28T06:10:17.013Z,33.60
2019-03-28T06:12:45.833Z,36.20
2019-03-28T06:15:14.289Z,41.20
2019-03-28T06:17:42.679Z,42.50
2019-03-28T06:20:11.426Z,37.63
2019-03-28T06:22:39.880Z,40.37
2019-03-28T06:25:08.945Z,39.10
2019-03-28T06:27:37.338Z,38.63
2019-03-28T06:30:08.176Z,39.60
2019-03-28T06:32:42.983Z,37.23
2019-03-28T06:35:07.389Z,37.70
2019-03-28T06:37:35.848Z,38.63
2019-03-28T06:40:05.624Z,39.10
2019-03-28T06:42:34.144Z,32.47
2019-03-28T06:45:03.967Z,29.57
2019-03-28T06:47:32.521Z,30.93
2019-03-28T06:50:00.907Z,30.63
2019-03-28T06:52:29.391Z,28.90
2019-03-28T06:54:57.889Z,31.10
2019-03-28T06:57:26.360Z,31.83
2019-03-28T06:59:55.136Z,31.87
2019-03-28T07:02:23.534Z,30.17
2019-03-28T07:04:51.942Z,31.87
2019-03-28T07:07:20.326Z,35.90
2019-03-28T07:09:49.017Z,33.57
2019-03-28T07:12:18.402Z,31.37
2019-03-28T07:14:47.066Z,35.00
2019-03-28T07:17:16.042Z,35.10
2019-03-28T07:19:44.734Z,32.63
2019-03-28T07:22:13.407Z,35.77
2019-03-28T07:24:42.101Z,36.17
2019-03-28T07:27:10.494Z,37.57
2019-03-28T07:29:50.267Z,35.67
2019-03-28T07:32:09.502Z,35.40
2019-03-28T07:34:38.169Z,37.83
2019-03-28T07:37:07.163Z,36.27
2019-03-28T07:39:36.268Z,36.80
2019-03-28T07:42:04.707Z,36.33
2019-03-28T07:44:33.361Z,35.23
2019-03-28T07:47:01.739Z,37.20
2019-03-28T07:49:30.432Z,38.63
2019-03-28T07:51:58.836Z,37.83
2019-03-28T07:54:27.466Z,37.67
2019-03-28T07:56:55.851Z,37.83
2019-03-28T07:59:24.519Z,37.97
2019-03-28T08:01:52.921Z,38.07
2019-03-28T08:04:21.696Z,37.90
2019-03-28T08:06:51.296Z,41.40
2019-03-28T08:09:20.500Z,39.80
2019-03-28T08:11:49.802Z,39.33
2019-03-28T08:14:18.421Z,39.27
2019-03-28T08:16:46.821Z,39.27
2019-03-28T08:19:15.216Z,39.60
2019-03-28T08:21:43.936Z,40.47
2019-03-28T08:24:12.331Z,39.50
2019-03-28T08:26:41.092Z,40.73
2019-03-28T08:29:09.495Z,39.70
2019-03-28T08:31:40.876Z,39.10
2019-03-28T08:34:09.628Z,40.30
2019-03-28T08:36:39.371Z,43.53
2019-03-28T08:39:08.216Z,41.53
2019-03-28T08:41:37.003Z,39.73
2019-03-28T08:44:07.304Z,39.43
2019-03-28T08:46:35.805Z,40.33
2019-03-28T08:49:04.280Z,42.60
2019-03-28T08:51:32.682Z,41.63
2019-03-28T08:54:01.080Z,38.40
2019-03-28T08:56:29.474Z,43.13
2019-03-28T08:58:57.925Z,38.67
2019-03-28T09:01:27.478Z,43.27
2019-03-28T09:03:55.868Z,40.97
2019-03-28T09:06:24.244Z,42.70
2019-03-28T09:08:52.647Z,41.60
2019-03-28T09:11:21.682Z,40.70
2019-03-28T09:13:50.309Z,38.93
2019-03-28T09:16:18.712Z,40.10
2019-03-28T09:18:47.505Z,41.63
2019-03-28T09:21:16.112Z,42.70
2019-03-28T09:23:44.526Z,40.97
2019-03-28T09:26:13.041Z,39.73
2019-03-28T09:28:41.427Z,42.20
2019-03-28T09:31:19.700Z,41.03
2019-03-28T09:33:40.938Z,42.97
2019-03-28T09:36:09.735Z,43.80
2019-03-28T09:38:38.125Z,39.30
2019-03-28T09:41:06.587Z,41.57
2019-03-28T09:43:35.021Z,45.47
2019-03-28T09:46:03.360Z,42.53
2019-03-28T09:48:31.767Z,42.20
2019-03-28T09:51:00.456Z,40.67
2019-03-28T09:53:29.021Z,41.47
2019-03-28T09:55:57.472Z,44.23
2019-03-28T09:58:25.876Z,42.70
2019-03-28T10:01:02.845Z,42.80
2019-03-28T10:03:24.924Z,43.80
2019-03-28T10:05:53.771Z,43.57
2019-03-28T10:08:22.156Z,44.23
2019-03-28T10:10:50.542Z,44.03
2019-03-28T10:13:19.202Z,42.77
2019-03-28T10:15:47.892Z,41.53
2019-03-28T10:18:16.575Z,43.60
2019-03-28T10:20:44.968Z,41.53
2019-03-28T10:23:13.648Z,41.97
2019-03-28T10:25:42.328Z,44.37
2019-03-28T10:28:11.018Z,43.10
2019-03-28T10:30:40.997Z,41.77
2019-03-28T10:33:09.441Z,38.70
2019-03-28T10:35:37.910Z,42.27
2019-03-28T10:38:06.684Z,40.90
2019-03-28T10:40:36.414Z,41.70
2019-03-28T10:43:05.139Z,41.60
2019-03-28T10:45:33.889Z,41.63
2019-03-28T10:48:02.626Z,42.70
2019-03-28T10:50:40.732Z,40.10
2019-03-28T10:53:01.258Z,41.10
2019-03-28T10:55:29.753Z,41.03
2019-03-28T10:57:58.584Z,40.27
2019-03-28T11:00:26.925Z,40.50
2019-03-28T11:02:55.381Z,39.97
2019-03-28T11:05:24.486Z,41.23
2019-03-28T11:07:52.892Z,38.20
2019-03-28T11:10:21.274Z,38.60
2019-03-28T11:12:50.028Z,38.40
2019-03-28T11:15:18.823Z,36.53
2019-03-28T11:17:47.636Z,37.00
2019-03-28T11:20:16.251Z,32.00
2019-03-28T11:22:44.639Z,31.37
2019-03-28T11:25:13.456Z,34.70
2019-03-28T11:27:41.845Z,30.83
2019-03-28T11:30:11.033Z,30.50
2019-03-28T11:32:39.413Z,30.20
2019-03-28T11:35:08.238Z,30.50
2019-03-28T11:37:37.198Z,31.53
2019-03-28T11:40:09.592Z,29.63
2019-03-28T11:42:38.367Z,29.10
2019-03-28T11:45:09.531Z,25.80
2019-03-28T11:47:38.364Z,26.00
2019-03-28T11:50:11.659Z,27.67
2019-03-28T11:52:42.552Z,25.77
2019-03-28T11:55:10.698Z,24.40
2019-03-28T11:57:39.112Z,22.03
2019-03-28T12:00:11.964Z,22.80
2019-03-28T12:02:40.446Z,22.30
2019-03-28T12:05:09.788Z,21.47
2019-03-28T12:07:38.744Z,24.93
2019-03-28T12:10:10.502Z,23.33
2019-03-28T12:12:38.979Z,22.50
2019-03-28T12:15:09.408Z,21.50
2019-03-28T12:17:37.787Z,22.30
2019-03-28T12:20:10.785Z,22.27
2019-03-28T12:22:39.398Z,22.60
2019-03-28T12:25:08.219Z,22.90
2019-03-28T12:27:36.626Z,24.40
2019-03-28T12:30:08.450Z,25.87
2019-03-28T12:32:37.049Z,23.93
2019-03-28T12:35:07.107Z,24.83
2019-03-28T12:37:36.712Z,24.30
2019-03-28T12:40:09.074Z,25.00
2019-03-28T12:42:37.932Z,25.70
2019-03-28T12:45:11.710Z,26.07
2019-03-28T12:47:42.645Z,25.13
2019-03-28T12:50:12.514Z,25.73
2019-03-28T12:52:40.940Z,26.30
2019-03-28T12:55:10.005Z,27.43
2019-03-28T12:57:38.387Z,27.87
2019-03-28T13:00:10.178Z,28.60
2019-03-28T13:02:39.437Z,24.83
2019-03-28T13:05:08.772Z,26.80
2019-03-28T13:07:37.151Z,26.30
2019-03-28T13:10:08.870Z,27.47
2019-03-28T13:12:37.798Z,26.60
2019-03-28T13:15:07.350Z,26.60
2019-03-28T13:17:36.052Z,26.87
2019-03-28T13:20:07.272Z,28.30
2019-03-28T13:22:36.613Z,28.63
2019-03-28T13:25:07.416Z,27.53
2019-03-28T13:27:36.763Z,25.20
2019-03-28T13:30:11.458Z,26.73
2019-03-28T13:32:42.183Z,27.20
2019-03-28T13:35:10.784Z,28.97
2019-03-28T13:37:39.176Z,26.80
2019-03-28T13:40:08.617Z,28.40
2019-03-28T13:42:38.776Z,28.37
2019-03-28T13:45:09.675Z,26.60
2019-03-28T13:47:38.415Z,24.40
2019-03-28T13:50:11.441Z,24.00
2019-03-28T13:52:39.932Z,25.30
2019-03-28T13:55:09.176Z,25.73
2019-03-28T13:57:37.681Z,28.60
2019-03-28T14:00:11.267Z,27.30
2019-03-28T14:02:40.102Z,29.97
2019-03-28T14:05:09.190Z,30.50
2019-03-28T14:07:37.657Z,30.70
2019-03-28T14:10:07.845Z,30.77
2019-03-28T14:12:36.315Z,31.17
2019-03-28T14:15:06.445Z,29.87
2019-03-28T14:17:35.199Z,33.00
2019-03-28T14:20:04.964Z,33.40
2019-03-28T14:22:33.432Z,33.63
2019-03-28T14:25:02.122Z,33.17
2019-03-28T14:27:30.592Z,32.60
2019-03-28T14:29:58.987Z,31.53
2019-03-28T14:32:36.973Z,34.30
2019-03-28T14:35:07.105Z,34.47
2019-03-28T14:37:35.484Z,35.77
2019-03-28T14:40:05.855Z,36.13
2019-03-28T14:42:34.260Z,35.70
2019-03-28T14:45:02.919Z,37.67
2019-03-28T14:47:36.333Z,37.73
2019-03-28T14:50:08.327Z,35.23
2019-03-28T14:52:36.780Z,36.73
2019-03-28T14:55:06.776Z,36.43
2019-03-28T14:57:35.925Z,37.13
2019-03-28T15:00:24.581Z,34.70
2019-03-28T15:02:55.827Z,34.40
2019-03-28T15:05:24.212Z,33.13
2019-03-28T15:07:53.151Z,33.27
2019-03-28T15:10:21.564Z,34.20
2019-03-28T15:12:49.981Z,34.60
2019-03-28T15:15:18.649Z,34.67
2019-03-28T15:17:47.340Z,36.87
2019-03-28T15:20:18.634Z,36.37
2019-03-28T15:22:47.006Z,39.40
2019-03-28T15:25:17.269Z,38.80
2019-03-28T15:27:45.674Z,37.03
2019-03-28T15:30:14.518Z,37.17
2019-03-28T15:32:43.350Z,36.50
2019-03-28T15:35:11.748Z,39.30
2019-03-28T15:37:40.139Z,39.03
2019-03-28T15:40:09.475Z,38.90
2019-03-28T15:42:37.868Z,37.97
2019-03-28T15:45:09.440Z,36.13
2019-03-28T15:47:37.839Z,36.53
2019-03-28T15:50:06.979Z,38.53
2019-03-28T15:52:35.532Z,39.67
2019-03-28T15:55:05.111Z,37.90
2019-03-28T15:57:36.946Z,37.93
2019-03-28T16:00:07.285Z,39.63
2019-03-28T16:02:35.693Z,39.93
2019-03-28T16:05:06.166Z,40.40
2019-03-28T16:07:34.695Z,40.80
2019-03-28T16:10:04.804Z,42.20
2019-03-28T16:12:33.281Z,40.57
2019-03-28T16:15:02.056Z,40.93
2019-03-28T16:17:30.493Z,41.07
2019-03-28T16:19:58.907Z,42.23
2019-03-28T16:22:27.308Z,41.60
2019-03-28T16:24:55.781Z,42.67
2019-03-28T16:27:29.426Z,42.73
2019-03-28T16:29:58.029Z,40.80
2019-03-28T16:32:26.475Z,40.67
2019-03-28T16:34:55.063Z,42.27
2019-03-28T16:37:23.509Z,39.77
2019-03-28T16:39:53.341Z,41.10
2019-03-28T16:42:21.725Z,41.00
2019-03-28T16:44:50.230Z,42.17
2019-03-28T16:47:18.700Z,39.10
2019-03-28T16:49:47.235Z,39.80
2019-03-28T16:52:15.668Z,36.20
2019-03-28T16:54:44.131Z,37.90
2019-03-28T16:57:12.739Z,39.93
2019-03-28T16:59:41.130Z,38.73
2019-03-28T17:02:09.758Z,38.53
2019-03-28T17:04:38.150Z,37.60
2019-03-28T17:07:07.910Z,37.90
2019-03-28T17:09:39.149Z,49.07
2019-03-28T17:12:08.106Z,49.10
2019-03-28T17:14:37.279Z,44.37
2019-03-28T17:17:05.937Z,40.27
2019-03-28T17:19:34.574Z,37.23
2019-03-28T17:22:03.076Z,36.63
2019-03-28T17:24:31.851Z,36.00
2019-03-28T17:27:00.235Z,37.33
2019-03-28T17:29:28.904Z,35.17
2019-03-28T17:31:57.620Z,38.23
2019-03-28T17:34:34.644Z,34.50
2019-03-28T17:36:56.213Z,35.77
2019-03-28T17:39:26.331Z,33.33
2019-03-28T17:41:54.804Z,35.87
2019-03-28T17:44:23.209Z,34.13
2019-03-28T17:46:51.599Z,35.43
2019-03-28T17:49:20.821Z,35.00
2019-03-28T17:51:49.372Z,30.93
2019-03-28T17:54:17.769Z,30.70
2019-03-28T17:56:46.185Z,31.57
2019-03-28T17:59:14.550Z,31.60
2019-03-28T18:01:42.951Z,31.30
2019-03-28T18:04:22.323Z,30.97
2019-03-28T18:06:41.600Z,32.53
2019-03-28T18:09:10.101Z,31.53
2019-03-28T18:11:38.531Z,28.60
2019-03-28T18:14:07.009Z,35.83
2019-03-28T18:16:35.509Z,29.37
2019-03-28T18:19:04.054Z,31.97
2019-03-28T18:21:32.451Z,32.17
2019-03-28T18:24:00.836Z,31.63
2019-03-28T18:26:29.375Z,30.70
2019-03-28T18:28:57.771Z,31.03
2019-03-28T18:31:26.157Z,32.73
2019-03-28T18:33:54.855Z,32.00
2019-03-28T18:36:23.245Z,31.20
2019-03-28T18:38:52.553Z,30.60
2019-03-28T18:41:21.005Z,30.57
2019-03-28T18:43:49.811Z,30.90
2019-03-28T18:46:18.456Z,32.10
2019-03-28T18:48:46.877Z,33.20
2019-03-28T18:51:15.260Z,32.83
2019-03-28T18:53:43.721Z,31.20
2019-03-28T18:56:12.445Z,32.27
2019-03-28T18:58:41.175Z,34.00
2019-03-28T19:01:09.603Z,34.73
2019-03-28T19:03:38.044Z,31.60
2019-03-28T19:06:06.427Z,33.60
2019-03-28T19:08:34.811Z,32.57
2019-03-28T19:11:03.996Z,35.10
2019-03-28T19:13:32.679Z,32.50
2019-03-28T19:16:01.856Z,34.20
2019-03-28T19:18:30.297Z,32.80
2019-03-28T19:20:58.683Z,32.77
2019-03-28T19:23:27.092Z,33.50
2019-03-28T19:25:55.537Z,33.80
2019-03-28T19:28:29.062Z,32.37
2019-03-28T19:30:54.155Z,34.37
2019-03-28T19:33:23.012Z,33.83
2019-03-28T19:35:52.197Z,35.50
2019-03-28T19:38:20.647Z,34.00
2019-03-28T19:40:49.035Z,31.23
2019-03-28T19:43:20.927Z,36.30
2019-03-28T19:45:47.795Z,33.83
2019-03-28T19:48:16.181Z,34.77
2019-03-28T19:50:44.892Z,35.77
2019-03-28T19:53:13.308Z,36.10
2019-03-28T19:55:41.773Z,35.50
2019-03-28T19:58:13.387Z,35.20
2019-03-28T20:00:40.459Z,33.97
2019-03-28T20:03:09.019Z,37.80
2019-03-28T20:05:47.611Z,39.00
2019-03-28T20:08:15.528Z,38.13
2019-03-28T20:10:37.919Z,35.67
2019-03-28T20:13:06.394Z,36.73
2019-03-28T20:15:34.773Z,38.63
2019-03-28T20:18:03.170Z,36.77
2019-03-28T20:20:31.624Z,38.07
2019-03-28T20:23:00.257Z,37.00
2019-03-28T20:25:28.864Z,39.17
2019-03-28T20:27:57.713Z,39.83
2019-03-28T20:30:26.196Z,39.30
2019-03-28T20:32:54.779Z,39.60
2019-03-28T20:35:23.940Z,39.80
2019-03-28T20:37:52.339Z,39.43
2019-03-28T20:40:21.497Z,39.00
2019-03-28T20:42:50.015Z,42.17
2019-03-28T20:45:19.326Z,40.60
2019-03-28T20:47:48.457Z,42.00
2019-03-28T20:50:18.089Z,40.67
2019-03-28T20:52:46.576Z,40.00
2019-03-28T20:55:15.145Z,41.90
2019-03-28T20:57:43.866Z,42.83
2019-03-28T21:00:13.730Z,41.87
2019-03-28T21:02:42.117Z,42.43
2019-03-28T21:05:14.338Z,44.67
2019-03-28T21:07:41.999Z,46.00
2019-03-28T21:10:13.673Z,45.63
2019-03-28T21:12:42.079Z,43.77
2019-03-28T21:15:10.645Z,42.83
2019-03-28T21:17:39.294Z,43.10
2019-03-28T21:20:08.058Z,42.70
2019-03-28T21:22:36.562Z,42.40
2019-03-28T21:25:07.272Z,42.83
2019-03-28T21:27:35.716Z,40.30
2019-03-28T21:30:06.321Z,43.43
2019-03-28T21:32:34.788Z,44.63
2019-03-28T21:35:03.784Z,44.07
2019-03-28T21:37:32.193Z,45.30
2019-03-28T21:40:01.561Z,44.77
2019-03-28T21:42:30.155Z,46.03
2019-03-28T21:44:58.633Z,45.87
2019-03-28T21:47:27.010Z,47.40
2019-03-28T21:49:55.414Z,45.60
2019-03-28T21:52:23.898Z,46.60
2019-03-28T21:54:52.770Z,47.50
2019-03-28T21:57:21.167Z,46.30
2019-03-28T21:59:49.949Z,47.53
2019-03-28T22:02:18.331Z,46.57
2019-03-28T22:04:46.911Z,47.20
2019-03-28T22:07:15.684Z,44.93
2019-03-28T22:09:44.378Z,46.07
2019-03-28T22:12:12.763Z,47.40
2019-03-28T22:14:41.254Z,45.07
2019-03-28T22:17:10.020Z,44.33
2019-03-28T22:19:38.505Z,43.40
2019-03-28T22:22:07.188Z,43.60
2019-03-28T22:24:38.833Z,44.90
2019-03-28T22:27:05.706Z,43.80
2019-03-28T22:29:34.372Z,42.87
2019-03-28T22:32:02.758Z,42.07
2019-03-28T22:34:31.261Z,41.60
2019-03-28T22:37:03.459Z,42.70
2019-03-28T22:39:30.380Z,42.40
2019-03-28T22:41:58.780Z,41.50
2019-03-28T22:44:27.922Z,40.03
2019-03-28T22:46:56.639Z,40.40
2019-03-28T22:49:25.021Z,41.33
2019-03-28T22:51:53.482Z,38.90
2019-03-28T22:54:21.882Z,39.47
2019-03-28T22:56:50.538Z,40.47
2019-03-28T22:59:18.927Z,39.03
2019-03-28T23:01:47.410Z,39.90
2019-03-28T23:04:16.195Z,37.57
2019-03-28T23:06:44.874Z,38.30
2019-03-28T23:09:13.563Z,38.73
2019-03-28T23:11:42.516Z,39.50
2019-03-28T23:14:11.283Z,38.07
2019-03-28T23:16:39.738Z,40.17
2019-03-28T23:19:08.210Z,38.40
2019-03-28T23:21:36.589Z,37.37
2019-03-28T23:24:05.046Z,36.23
2019-03-28T23:26:34.838Z,38.80
2019-03-28T23:29:03.677Z,36.27
2019-03-28T23:31:32.048Z,36.40
2019-03-28T23:34:00.510Z,35.43
2019-03-28T23:36:29.334Z,37.00
2019-03-28T23:38:57.794Z,36.03
2019-03-28T23:41:26.191Z,34.23
2019-03-28T23:43:54.577Z,36.73
2019-03-28T23:46:22.972Z,34.20
2019-03-28T23:48:51.423Z,35.17
2019-03-28T23:51:20.198Z,36.03
2019-03-28T23:53:48.886Z,34.43
2019-03-28T23:56:17.385Z,34.17
2019-03-28T23:58:46.209Z,33.53
